createdAt,value
2019-03-19T00:02:01.784Z,98.63
2019-03-19T00:04:31.257Z,86.77
2019-03-19T00:07:01.318Z,82.70
2019-03-19T00:09:31.163Z,83.53
2019-03-19T00:12:01.303Z,75.73
2019-03-19T00:14:31.595Z,84.00
2019-03-19T00:17:01.392Z,86.23
2019-03-19T00:19:30.970Z,87.63
2019-03-19T00:22:00.596Z,91.13
2019-03-19T00:24:30.545Z,90.67
2019-03-19T00:27:00.056Z,90.43
2019-03-19T00:29:29.676Z,93.30
2019-03-19T00:31:59.147Z,97.87
2019-03-19T00:34:28.594Z,96.23
2019-03-19T00:36:58.063Z,90.63
2019-03-19T00:39:27.424Z,95.80
2019-03-19T00:41:56.743Z,91.47
2019-03-19T00:44:26.147Z,84.00
2019-03-19T00:46:55.441Z,84.23
2019-03-19T00:49:24.696Z,84.20
2019-03-19T00:51:53.941Z,74.80
2019-03-19T00:54:24.951Z,76.00
2019-03-19T00:56:54.464Z,74.70
2019-03-19T00:59:23.797Z,69.67
2019-03-19T01:01:53.096Z,68.80
2019-03-19T01:04:22.318Z,71.90
2019-03-19T01:06:53.797Z,63.40
2019-03-19T01:09:23.320Z,60.53
2019-03-19T01:11:52.819Z,65.10
2019-03-19T01:14:22.294Z,61.87
2019-03-19T01:16:51.582Z,58.67
2019-03-19T01:19:20.867Z,58.40
2019-03-19T01:21:50.346Z,57.87
2019-03-19T01:24:19.628Z,59.53
2019-03-19T01:26:48.987Z,57.63
2019-03-19T01:29:18.242Z,57.37
2019-03-19T01:31:47.588Z,58.60
2019-03-19T01:34:16.889Z,62.83
2019-03-19T01:36:46.155Z,63.27
2019-03-19T01:39:15.548Z,62.83
2019-03-19T01:41:44.924Z,63.27
2019-03-19T01:44:14.286Z,60.67
2019-03-19T01:46:43.812Z,65.77
2019-03-19T01:49:15.176Z,72.03
2019-03-19T01:51:44.376Z,66.37
2019-03-19T01:54:13.626Z,65.07
2019-03-19T01:56:42.935Z,66.33
2019-03-19T01:59:12.280Z,63.80
2019-03-19T02:01:41.561Z,64.70
2019-03-19T02:04:10.859Z,68.50
2019-03-19T02:06:40.229Z,61.83
2019-03-19T02:09:09.866Z,64.57
2019-03-19T02:11:39.138Z,66.10
2019-03-19T02:14:08.502Z,62.33
2019-03-19T02:16:37.747Z,67.13
2019-03-19T02:19:07.044Z,64.90
2019-03-19T02:21:36.248Z,63.63
2019-03-19T02:24:05.603Z,63.63
2019-03-19T02:26:34.867Z,61.60
2019-03-19T02:29:04.128Z,63.43
2019-03-19T02:31:33.468Z,62.17
2019-03-19T02:34:02.696Z,58.80
2019-03-19T02:36:32.089Z,62.13
2019-03-19T02:39:01.662Z,66.33
2019-03-19T02:41:32.274Z,59.90
2019-03-19T02:44:01.619Z,56.87
2019-03-19T02:46:30.936Z,56.30
2019-03-19T02:49:00.287Z,59.30
2019-03-19T02:51:29.832Z,60.30
2019-03-19T02:53:59.092Z,59.93
2019-03-19T02:56:33.134Z,60.87
2019-03-19T02:58:59.408Z,62.10
2019-03-19T03:01:28.971Z,55.03
2019-03-19T03:03:58.211Z,58.30
2019-03-19T03:06:27.464Z,59.37
2019-03-19T03:08:56.815Z,52.43
2019-03-19T03:11:26.688Z,52.97
2019-03-19T03:13:55.914Z,52.03
2019-03-19T03:16:25.267Z,47.90
2019-03-19T03:18:55.640Z,44.27
2019-03-19T03:21:25.012Z,45.37
2019-03-19T03:23:54.335Z,46.17
2019-03-19T03:26:23.868Z,50.43
2019-03-19T03:28:53.177Z,52.43
2019-03-19T03:31:22.383Z,55.10
2019-03-19T03:33:51.652Z,57.63
2019-03-19T03:36:20.979Z,63.33
2019-03-19T03:38:50.519Z,61.53
2019-03-19T03:41:19.847Z,63.33
2019-03-19T03:43:49.063Z,60.57
2019-03-19T03:46:18.266Z,66.93
2019-03-19T03:48:47.565Z,66.47
2019-03-19T03:51:17.169Z,66.33
2019-03-19T03:53:46.515Z,67.93
2019-03-19T03:56:15.810Z,67.67
2019-03-19T03:59:00.079Z,68.67
2019-03-19T04:01:17.434Z,63.40
2019-03-19T04:03:46.670Z,65.60
2019-03-19T04:06:16.136Z,67.93
2019-03-19T04:08:45.407Z,65.67
2019-03-19T04:11:14.715Z,64.53
2019-03-19T04:13:43.976Z,68.83
2019-03-19T04:16:13.162Z,61.80
2019-03-19T04:18:42.472Z,61.63
2019-03-19T04:21:11.811Z,60.47
2019-03-19T04:23:41.072Z,59.60
2019-03-19T04:26:10.345Z,58.63
2019-03-19T04:28:39.653Z,60.77
2019-03-19T04:31:08.974Z,61.07
2019-03-19T04:33:38.425Z,56.43
2019-03-19T04:36:07.724Z,59.97
2019-03-19T04:38:37.087Z,54.73
2019-03-19T04:41:06.360Z,57.33
2019-03-19T04:43:37.470Z,54.73
2019-03-19T04:46:06.767Z,52.93
2019-03-19T04:48:36.883Z,52.83
2019-03-19T04:51:06.050Z,55.77
2019-03-19T04:53:35.348Z,55.80
2019-03-19T04:56:04.688Z,54.83
2019-03-19T04:58:34.250Z,59.97
2019-03-19T05:01:03.613Z,48.63
2019-03-19T05:03:32.895Z,52.27
2019-03-19T05:06:02.112Z,52.23
2019-03-19T05:08:31.444Z,56.80
2019-03-19T05:11:00.693Z,59.90
2019-03-19T05:13:31.401Z,59.63
2019-03-19T05:16:00.765Z,57.00
2019-03-19T05:18:31.440Z,57.43
2019-03-19T05:21:00.897Z,56.90
2019-03-19T05:23:30.236Z,59.97
2019-03-19T05:25:59.427Z,61.70
2019-03-19T05:28:29.102Z,55.13
2019-03-19T05:30:59.658Z,62.23
2019-03-19T05:33:28.998Z,60.13
2019-03-19T05:35:58.356Z,51.13
2019-03-19T05:38:29.475Z,49.93
2019-03-19T05:40:58.755Z,50.00
2019-03-19T05:43:28.138Z,54.53
2019-03-19T05:45:57.487Z,52.37
2019-03-19T05:48:26.786Z,58.30
2019-03-19T05:50:56.059Z,61.33
2019-03-19T05:53:25.363Z,58.97
2019-03-19T05:55:54.969Z,55.13
2019-03-19T05:58:24.364Z,47.47
2019-03-19T06:00:53.751Z,45.77
2019-03-19T06:03:23.078Z,42.40
2019-03-19T06:05:52.319Z,43.97
2019-03-19T06:08:21.510Z,41.37
2019-03-19T06:10:50.817Z,44.27
2019-03-19T06:13:20.063Z,40.20
2019-03-19T06:15:49.277Z,41.53
2019-03-19T06:18:18.491Z,40.47
2019-03-19T06:20:47.769Z,41.33
2019-03-19T06:23:17.045Z,43.20
2019-03-19T06:25:46.486Z,40.43
2019-03-19T06:28:18.596Z,45.27
2019-03-19T06:30:51.116Z,41.77
2019-03-19T06:33:20.399Z,44.87
2019-03-19T06:35:50.100Z,42.30
2019-03-19T06:38:19.855Z,41.90
2019-03-19T06:40:49.042Z,42.10
2019-03-19T06:43:18.382Z,40.10
2019-03-19T06:45:49.447Z,39.60
2019-03-19T06:48:18.718Z,37.43
2019-03-19T06:50:47.951Z,31.43
2019-03-19T06:53:17.342Z,35.23
2019-03-19T06:55:46.914Z,33.30
2019-03-19T06:58:16.306Z,31.03
2019-03-19T07:00:45.683Z,26.73
2019-03-19T07:03:14.945Z,27.87
2019-03-19T07:05:44.304Z,26.67
2019-03-19T07:08:13.711Z,31.57
2019-03-19T07:10:43.139Z,31.70
2019-03-19T07:13:12.554Z,31.03
2019-03-19T07:15:41.882Z,28.90
2019-03-19T07:18:11.382Z,28.43
2019-03-19T07:20:40.900Z,30.40
2019-03-19T07:23:10.519Z,28.23
2019-03-19T07:25:40.258Z,29.83
2019-03-19T07:28:09.635Z,29.17
2019-03-19T07:30:40.913Z,26.53
2019-03-19T07:33:10.148Z,24.60
2019-03-19T07:35:39.549Z,28.23
2019-03-19T07:38:08.899Z,25.40
2019-03-19T07:40:38.310Z,27.77
2019-03-19T07:43:07.669Z,19.23
2019-03-19T07:45:37.399Z,21.97
2019-03-19T07:48:06.724Z,20.23
2019-03-19T07:50:36.309Z,20.57
2019-03-19T07:53:05.694Z,20.93
2019-03-19T07:55:35.033Z,21.67
2019-03-19T07:58:04.393Z,18.20
2019-03-19T08:00:33.722Z,19.70
2019-03-19T08:03:03.120Z,22.17
2019-03-19T08:05:33.597Z,21.60
2019-03-19T08:08:03.069Z,20.60
2019-03-19T08:10:32.389Z,20.33
2019-03-19T08:13:01.798Z,17.07
2019-03-19T08:15:31.198Z,20.23
2019-03-19T08:18:00.591Z,15.60
2019-03-19T08:20:29.959Z,19.20
2019-03-19T08:22:59.306Z,17.67
2019-03-19T08:25:28.591Z,17.13
2019-03-19T08:27:57.997Z,20.87
2019-03-19T08:30:27.499Z,16.87
2019-03-19T08:32:57.107Z,18.00
2019-03-19T08:35:26.486Z,15.67
2019-03-19T08:37:55.869Z,18.43
2019-03-19T08:40:25.242Z,17.73
2019-03-19T08:42:54.741Z,18.30
2019-03-19T08:45:24.085Z,18.27
2019-03-19T08:47:53.745Z,12.77
2019-03-19T08:50:24.376Z,14.57
2019-03-19T08:52:55.433Z,13.33
2019-03-19T08:55:24.988Z,20.53
2019-03-19T08:57:54.387Z,17.07
2019-03-19T09:00:23.761Z,16.33
2019-03-19T09:02:53.003Z,14.73
2019-03-19T09:05:22.776Z,15.50
2019-03-19T09:07:52.008Z,19.83
2019-03-19T09:10:21.282Z,17.77
2019-03-19T09:12:50.778Z,16.13
2019-03-19T09:15:20.107Z,19.27
2019-03-19T09:17:49.283Z,18.30
2019-03-19T09:20:18.552Z,18.33
2019-03-19T09:22:47.812Z,20.43
2019-03-19T09:25:17.151Z,21.70
2019-03-19T09:27:46.427Z,21.73
2019-03-19T09:30:17.190Z,23.73
2019-03-19T09:32:46.498Z,24.30
2019-03-19T09:35:15.744Z,25.23
2019-03-19T09:37:57.238Z,23.73
2019-03-19T09:40:16.588Z,18.30
2019-03-19T09:42:45.786Z,19.17
2019-03-19T09:45:15.274Z,19.97
2019-03-19T09:47:45.089Z,18.57
2019-03-19T09:50:15.100Z,21.63
2019-03-19T09:52:44.498Z,21.53
2019-03-19T09:55:13.939Z,19.43
2019-03-19T09:57:43.107Z,19.27
2019-03-19T10:00:17.625Z,18.10
2019-03-19T10:02:46.931Z,13.07
2019-03-19T10:05:16.185Z,11.53
2019-03-19T10:07:45.727Z,11.60
2019-03-19T10:10:15.625Z,14.67
2019-03-19T10:12:44.844Z,16.23
2019-03-19T10:15:14.727Z,12.53
2019-03-19T10:17:43.986Z,9.73
2019-03-19T10:20:14.117Z,9.57
2019-03-19T10:22:43.584Z,14.97
2019-03-19T10:25:12.910Z,13.30
2019-03-19T10:27:42.312Z,9.63
2019-03-19T10:30:14.707Z,8.37
2019-03-19T10:32:44.015Z,12.23
2019-03-19T10:35:13.662Z,8.77
2019-03-19T10:37:42.866Z,9.33
2019-03-19T10:40:12.124Z,12.07
2019-03-19T10:42:41.415Z,12.00
2019-03-19T10:45:11.305Z,10.33
2019-03-19T10:47:40.634Z,11.27
2019-03-19T10:50:13.674Z,8.60
2019-03-19T10:52:42.938Z,9.90
2019-03-19T10:55:12.785Z,8.97
2019-03-19T10:57:42.183Z,13.23
2019-03-19T11:00:16.402Z,8.83
2019-03-19T11:02:45.734Z,14.07
2019-03-19T11:05:15.608Z,14.57
2019-03-19T11:07:44.931Z,14.70
2019-03-19T11:10:14.347Z,10.10
2019-03-19T11:12:44.079Z,10.53
2019-03-19T11:15:15.246Z,8.57
2019-03-19T11:17:44.538Z,8.90
2019-03-19T11:20:15.143Z,13.37
2019-03-19T11:22:44.526Z,12.10
2019-03-19T11:25:14.670Z,13.40
2019-03-19T11:27:44.559Z,12.37
2019-03-19T11:30:21.501Z,9.80
2019-03-19T11:32:50.896Z,8.77
2019-03-19T11:35:20.559Z,9.97
2019-03-19T11:37:49.935Z,9.30
2019-03-19T11:40:19.318Z,6.70
2019-03-19T11:42:48.594Z,7.83
2019-03-19T11:45:18.434Z,7.13
2019-03-19T11:47:47.946Z,7.77
2019-03-19T11:50:19.325Z,9.40
2019-03-19T11:52:48.868Z,10.53
2019-03-19T11:55:18.731Z,11.80
2019-03-19T11:57:48.027Z,10.83
2019-03-19T12:00:29.835Z,10.83
2019-03-19T12:02:59.195Z,11.80
2019-03-19T12:05:28.488Z,13.70
2019-03-19T12:07:57.808Z,13.73
2019-03-19T12:10:27.151Z,10.73
2019-03-19T12:12:56.359Z,12.43
2019-03-19T12:15:25.655Z,12.93
2019-03-19T12:17:55.376Z,12.70
2019-03-19T12:20:24.682Z,15.33
2019-03-19T12:22:54.070Z,10.17
2019-03-19T12:25:23.346Z,11.27
2019-03-19T12:27:52.609Z,7.93
2019-03-19T12:30:24.797Z,11.73
2019-03-19T12:32:52.962Z,7.70
2019-03-19T12:35:22.297Z,10.67
2019-03-19T12:37:51.611Z,9.10
2019-03-19T12:40:21.082Z,8.03
2019-03-19T12:42:50.544Z,7.67
2019-03-19T12:45:19.981Z,8.17
2019-03-19T12:47:49.299Z,9.97
2019-03-19T12:50:18.665Z,8.20
2019-03-19T12:52:48.447Z,8.60
2019-03-19T12:55:18.083Z,9.40
2019-03-19T12:57:47.330Z,8.83
2019-03-19T13:00:19.905Z,8.03
2019-03-19T13:02:49.256Z,7.40
2019-03-19T13:05:22.544Z,5.50
2019-03-19T13:07:51.877Z,7.97
2019-03-19T13:10:21.246Z,4.30
2019-03-19T13:12:51.641Z,5.63
2019-03-19T13:15:20.917Z,8.37
2019-03-19T13:17:51.619Z,4.60
2019-03-19T13:20:21.058Z,6.97
2019-03-19T13:22:50.446Z,6.27
2019-03-19T13:25:19.811Z,6.87
2019-03-19T13:27:49.140Z,7.80
2019-03-19T13:30:21.466Z,7.70
2019-03-19T13:32:50.689Z,4.97
2019-03-19T13:35:20.034Z,9.17
2019-03-19T13:37:49.376Z,5.27
2019-03-19T13:40:21.417Z,7.93
2019-03-19T13:42:50.711Z,9.50
2019-03-19T13:45:20.127Z,6.47
2019-03-19T13:47:49.408Z,10.40
2019-03-19T13:50:20.669Z,9.03
2019-03-19T13:52:51.118Z,9.17
2019-03-19T13:55:20.559Z,11.37
2019-03-19T13:57:49.894Z,10.10
2019-03-19T14:00:19.161Z,9.73
2019-03-19T14:02:49.019Z,12.17
2019-03-19T14:05:18.349Z,11.43
2019-03-19T14:07:47.704Z,9.20
2019-03-19T14:10:16.956Z,7.00
2019-03-19T14:12:46.271Z,8.80
2019-03-19T14:15:15.611Z,7.17
2019-03-19T14:17:44.804Z,7.27
2019-03-19T14:20:15.423Z,7.00
2019-03-19T14:22:45.678Z,10.13
2019-03-19T14:25:15.402Z,5.53
2019-03-19T14:27:44.779Z,9.30
2019-03-19T14:30:15.768Z,9.03
2019-03-19T14:32:44.996Z,11.63
2019-03-19T14:35:14.658Z,7.53
2019-03-19T14:37:43.985Z,8.40
2019-03-19T14:40:15.048Z,8.00
2019-03-19T14:42:44.296Z,10.57
2019-03-19T14:45:13.724Z,13.27
2019-03-19T14:47:42.895Z,9.50
2019-03-19T14:50:12.905Z,8.57
2019-03-19T14:52:43.900Z,10.50
2019-03-19T14:55:13.143Z,10.93
2019-03-19T14:57:42.838Z,10.83
2019-03-19T15:00:14.069Z,11.07
2019-03-19T15:02:43.395Z,12.90
2019-03-19T15:05:13.215Z,10.63
2019-03-19T15:07:42.386Z,10.90
2019-03-19T15:10:13.435Z,9.37
2019-03-19T15:12:42.787Z,13.13
2019-03-19T15:15:13.151Z,12.30
2019-03-19T15:17:42.494Z,9.47
2019-03-19T15:20:16.526Z,11.33
2019-03-19T15:22:46.113Z,13.90
2019-03-19T15:25:15.410Z,12.53
2019-03-19T15:27:44.884Z,10.07
2019-03-19T15:30:14.832Z,12.57
2019-03-19T15:32:44.158Z,11.00
2019-03-19T15:35:13.671Z,11.53
2019-03-19T15:37:42.975Z,14.43
2019-03-19T15:40:13.034Z,11.40
2019-03-19T15:42:42.497Z,14.13
2019-03-19T15:45:12.315Z,15.03
2019-03-19T15:47:44.035Z,14.07
2019-03-19T15:50:14.812Z,12.73
2019-03-19T15:52:44.315Z,13.40
2019-03-19T15:55:14.754Z,12.13
2019-03-19T15:57:44.633Z,11.27
2019-03-19T16:00:15.552Z,13.23
2019-03-19T16:02:45.018Z,16.30
2019-03-19T16:05:14.668Z,20.90
2019-03-19T16:07:44.161Z,14.63
2019-03-19T16:10:13.730Z,15.83
2019-03-19T16:12:43.140Z,20.53
2019-03-19T16:15:13.429Z,15.07
2019-03-19T16:17:42.883Z,15.47
2019-03-19T16:20:14.048Z,15.00
2019-03-19T16:22:43.569Z,16.53
2019-03-19T16:25:13.389Z,17.43
2019-03-19T16:27:42.978Z,20.03
2019-03-19T16:30:13.825Z,17.63
2019-03-19T16:32:43.332Z,22.30
2019-03-19T16:35:12.827Z,20.90
2019-03-19T16:37:42.228Z,21.47
2019-03-19T16:40:14.503Z,17.80
2019-03-19T16:42:43.925Z,18.70
2019-03-19T16:45:13.740Z,18.87
2019-03-19T16:47:43.175Z,22.83
2019-03-19T16:50:13.750Z,17.67
2019-03-19T16:52:43.372Z,18.40
2019-03-19T16:55:13.420Z,17.80
2019-03-19T16:57:42.992Z,15.90
2019-03-19T17:00:14.854Z,13.50
2019-03-19T17:02:44.246Z,15.63
2019-03-19T17:05:14.546Z,17.67
2019-03-19T17:07:44.221Z,16.93
2019-03-19T17:10:14.561Z,14.87
2019-03-19T17:12:44.088Z,17.30
2019-03-19T17:15:14.360Z,26.03
2019-03-19T17:17:44.057Z,19.73
2019-03-19T17:20:14.083Z,28.80
2019-03-19T17:22:43.547Z,29.37
2019-03-19T17:25:14.111Z,31.70
2019-03-19T17:27:43.644Z,31.13
2019-03-19T17:30:18.692Z,28.80
2019-03-19T17:32:49.185Z,30.10
2019-03-19T17:35:21.512Z,31.23
2019-03-19T17:37:50.998Z,36.33
2019-03-19T17:40:20.400Z,40.03
2019-03-19T17:42:50.339Z,40.03
2019-03-19T17:45:19.729Z,42.10
2019-03-19T17:47:49.177Z,33.30
2019-03-19T17:50:19.745Z,29.07
2019-03-19T17:52:49.978Z,26.90
2019-03-19T17:55:19.442Z,24.17
2019-03-19T17:57:48.814Z,20.57
2019-03-19T18:00:22.060Z,23.30
2019-03-19T18:02:51.654Z,23.80
2019-03-19T18:05:21.164Z,22.57
2019-03-19T18:07:50.568Z,22.87
2019-03-19T18:10:19.923Z,22.57
2019-03-19T18:12:49.543Z,21.93
2019-03-19T18:15:18.958Z,29.67
2019-03-19T18:17:48.333Z,28.77
2019-03-19T18:20:17.992Z,26.30
2019-03-19T18:22:47.470Z,27.63
2019-03-19T18:25:17.102Z,51.07
2019-03-19T18:27:47.098Z,85.00
2019-03-19T18:30:16.703Z,72.70
2019-03-19T18:32:46.215Z,80.23
2019-03-19T18:35:15.690Z,74.43
2019-03-19T18:37:45.022Z,72.60
2019-03-19T18:40:14.649Z,65.83
2019-03-19T18:42:44.564Z,58.73
2019-03-19T18:45:14.246Z,56.23
2019-03-19T18:47:43.560Z,59.90
2019-03-19T18:50:13.658Z,58.00
2019-03-19T18:52:44.690Z,57.73
2019-03-19T18:55:14.407Z,65.43
2019-03-19T18:57:43.822Z,55.00
2019-03-19T19:00:14.800Z,70.83
2019-03-19T19:02:49.627Z,68.00
2019-03-19T19:05:15.257Z,76.43
2019-03-19T19:07:44.810Z,76.83
2019-03-19T19:10:14.751Z,86.60
2019-03-19T19:12:44.112Z,96.37
2019-03-19T19:15:14.840Z,98.30
2019-03-19T19:17:44.653Z,97.00
2019-03-19T19:20:14.173Z,112.97
2019-03-19T19:22:43.581Z,114.13
2019-03-19T19:25:14.139Z,114.47
2019-03-19T19:27:43.475Z,108.47
2019-03-19T19:30:15.689Z,110.83
2019-03-19T19:32:45.117Z,103.83
2019-03-19T19:35:14.576Z,100.10
2019-03-19T19:37:43.901Z,98.57
2019-03-19T19:40:14.230Z,99.23
2019-03-19T19:42:43.629Z,96.53
2019-03-19T19:45:13.161Z,91.63
2019-03-19T19:47:42.627Z,92.77
2019-03-19T19:50:13.471Z,82.87
2019-03-19T19:52:43.112Z,79.23
2019-03-19T19:55:12.799Z,75.23
2019-03-19T19:57:42.305Z,78.37
2019-03-19T20:00:14.110Z,84.67
2019-03-19T20:02:43.669Z,82.27
2019-03-19T20:05:13.502Z,81.50
2019-03-19T20:07:43.035Z,73.67
2019-03-19T20:10:15.005Z,69.53
2019-03-19T20:12:44.429Z,71.07
2019-03-19T20:15:14.111Z,64.23
2019-03-19T20:17:44.130Z,69.70
2019-03-19T20:20:16.111Z,72.17
2019-03-19T20:22:45.580Z,65.47
2019-03-19T20:25:15.126Z,73.43
2019-03-19T20:27:44.575Z,77.50
2019-03-19T20:30:16.412Z,70.93
2019-03-19T20:32:46.405Z,77.17
2019-03-19T20:35:15.809Z,80.00
2019-03-19T20:37:45.432Z,79.60
2019-03-19T20:40:14.955Z,85.03
2019-03-19T20:42:44.391Z,89.53
2019-03-19T20:45:14.031Z,82.37
2019-03-19T20:47:43.423Z,89.23
2019-03-19T20:50:18.795Z,84.87
2019-03-19T20:52:48.229Z,88.70
2019-03-19T20:55:17.810Z,81.70
2019-03-19T20:57:47.420Z,87.63
2019-03-19T21:00:17.444Z,84.57
2019-03-19T21:02:46.931Z,87.40
2019-03-19T21:05:16.558Z,84.47
2019-03-19T21:07:45.960Z,91.90
2019-03-19T21:10:17.080Z,93.37
2019-03-19T21:12:46.601Z,82.67
2019-03-19T21:15:21.064Z,86.20
2019-03-19T21:17:50.667Z,85.83
2019-03-19T21:20:21.032Z,82.40
2019-03-19T21:22:50.468Z,79.87
2019-03-19T21:25:20.010Z,89.57
2019-03-19T21:27:49.540Z,90.33
2019-03-19T21:30:19.297Z,81.10
2019-03-19T21:32:48.879Z,88.27
2019-03-19T21:35:20.307Z,87.43
2019-03-19T21:37:49.640Z,92.53
2019-03-19T21:40:19.074Z,91.67
2019-03-19T21:42:48.847Z,81.50
2019-03-19T21:45:18.277Z,87.60
2019-03-19T21:47:47.929Z,78.80
2019-03-19T21:50:17.422Z,89.47
2019-03-19T21:52:46.736Z,92.60
2019-03-19T21:55:16.168Z,79.67
2019-03-19T21:57:45.538Z,83.80
2019-03-19T22:00:15.966Z,81.20
2019-03-19T22:02:45.335Z,76.73
2019-03-19T22:05:14.944Z,74.03
2019-03-19T22:07:44.238Z,76.80
2019-03-19T22:10:14.161Z,76.70
2019-03-19T22:12:43.969Z,78.43
2019-03-19T22:15:15.409Z,79.03
2019-03-19T22:17:45.017Z,85.50
2019-03-19T22:20:14.846Z,79.10
2019-03-19T22:22:44.151Z,76.80
2019-03-19T22:25:13.504Z,78.57
2019-03-19T22:27:42.723Z,79.57
2019-03-19T22:30:14.252Z,81.40
2019-03-19T22:32:43.761Z,85.27
2019-03-19T22:35:13.105Z,86.40
2019-03-19T22:37:42.648Z,86.63
2019-03-19T22:40:14.224Z,84.03
2019-03-19T22:42:46.008Z,84.10
2019-03-19T22:45:15.663Z,87.90
2019-03-19T22:47:45.142Z,83.13
2019-03-19T22:50:14.971Z,81.63
2019-03-19T22:52:45.720Z,78.97
2019-03-19T22:55:15.164Z,78.13
2019-03-19T22:57:44.650Z,83.33
2019-03-19T23:00:21.759Z,82.47
2019-03-19T23:02:51.259Z,81.53
2019-03-19T23:05:20.776Z,91.33
2019-03-19T23:07:50.588Z,84.33
2019-03-19T23:10:19.979Z,80.77
2019-03-19T23:12:49.523Z,86.40
2019-03-19T23:15:19.114Z,89.40
2019-03-19T23:17:48.554Z,88.37
2019-03-19T23:20:17.954Z,88.83
2019-03-19T23:22:47.524Z,86.33
2019-03-19T23:25:17.112Z,98.90
2019-03-19T23:27:46.551Z,90.73
2019-03-19T23:30:15.878Z,86.47
2019-03-19T23:32:46.823Z,85.20
2019-03-19T23:35:16.310Z,86.70
2019-03-19T23:37:45.697Z,89.37
2019-03-19T23:40:15.456Z,83.47
2019-03-19T23:42:44.833Z,87.13
2019-03-19T23:45:14.372Z,93.93
2019-03-19T23:50:40.017Z,89.93
2019-03-19T23:53:09.425Z,95.57
2019-03-19T23:55:38.903Z,93.50
2019-03-19T23:58:08.352Z,99.30
